Time;durP1;ratioP1;P1;durP2;ratioP2;P2;SDS_P1;SDS_P2;PMS_P1;PMS_P2;Temp;Humidity;BMP_temperature;BMP_pressure;BME280_temperature;BME280_humidity;BME280_pressure;Samples;Min_cycle;Max_cycle;Signal;HPM_P1;HPM_P2
2022/05/28 00:00:17;;;;;;;5.88;3.95;;;;;;;14.14;74.92;99865.00;5101992;28;20214;-80
2022/05/28 00:02:43;;;;;;;8.07;4.10;;;;;;;14.22;74.86;99861.75;5103807;28;20251;-80
2022/05/28 00:05:10;;;;;;;7.05;4.30;;;;;;;14.12;73.88;99858.81;5114247;28;20185;-80
2022/05/28 00:07:37;;;;;;;5.78;4.13;;;;;;;14.18;73.00;99853.00;5113036;28;20610;-79
2022/05/28 00:10:04;;;;;;;7.95;3.95;;;;;;;14.08;72.98;99860.84;5097154;28;20198;-79
2022/05/28 00:12:32;;;;;;;7.95;3.92;;;;;;;14.03;73.11;99863.03;5103302;28;20198;-80
2022/05/28 00:14:59;;;;;;;10.45;4.07;;;;;;;14.06;73.29;99859.22;5097690;28;20191;-79
2022/05/28 00:17:26;;;;;;;6.38;3.15;;;;;;;13.99;72.95;99866.91;5099734;28;20219;-79
2022/05/28 00:19:54;;;;;;;5.95;3.72;;;;;;;13.70;76.07;99868.88;5107815;28;20197;-79
2022/05/28 00:22:21;;;;;;;6.50;4.70;;;;;;;13.70;77.20;99864.34;5113822;28;20324;-79
2022/05/28 00:24:47;;;;;;;9.38;4.63;;;;;;;13.70;77.79;99867.06;5113738;28;20281;-79
2022/05/28 00:27:14;;;;;;;8.38;4.32;;;;;;;13.60;78.83;99865.91;5114109;28;20185;-79
2022/05/28 00:29:42;;;;;;;6.53;4.15;;;;;;;13.59;79.77;99875.00;5105056;28;20204;-79
2022/05/28 00:32:09;;;;;;;8.90;4.50;;;;;;;13.50;80.26;99872.88;5113936;28;20605;-79
2022/05/28 00:34:36;;;;;;;7.43;3.90;;;;;;;13.50;80.76;99862.06;5098232;28;20194;-80
2022/05/28 00:37:04;;;;;;;6.57;3.97;;;;;;;13.36;82.42;99868.38;5093579;28;20649;-79
2022/05/28 00:39:30;;;;;;;5.32;4.20;;;;;;;13.19;83.99;99865.91;5104040;28;20184;-78
2022/05/28 00:41:58;;;;;;;6.10;4.03;;;;;;;13.23;84.50;99871.00;5113694;28;20217;-79
2022/05/28 00:44:25;;;;;;;6.63;3.90;;;;;;;13.13;85.23;99868.00;5112471;28;20288;-80
2022/05/28 00:46:56;;;;;;;8.52;4.03;;;;;;;13.04;85.69;99870.44;5109184;28;20185;-79
2022/05/28 00:49:26;;;;;;;10.50;4.32;;;;;;;13.00;86.92;99872.50;5105422;28;20224;-79
2022/05/28 00:51:55;;;;;;;8.65;4.53;;;;;;;12.84;88.60;99871.72;5103289;28;20231;-79
2022/05/28 00:54:22;;;;;;;10.93;3.67;;;;;;;12.87;87.47;99871.53;5113230;28;20190;-79
2022/05/28 00:56:50;;;;;;;8.77;4.68;;;;;;;13.12;84.21;99879.81;5093942;28;20212;-79
2022/05/28 00:59:17;;;;;;;8.38;4.07;;;;;;;13.14;81.05;99869.75;5102067;28;20277;-79
2022/05/28 01:01:44;;;;;;;8.10;3.75;;;;;;;13.05;81.17;99875.75;5093000;28;20300;-79
2022/05/28 01:04:22;;;;;;;13.18;4.30;;;;;;;12.86;81.31;99867.09;5102473;28;20527;-79
2022/05/28 01:06:59;;;;;;;5.75;3.95;;;;;;;12.75;81.29;99880.41;5097826;28;20634;-79
2022/05/28 01:09:32;;;;;;;5.47;3.80;;;;;;;12.67;80.61;99879.06;5104266;28;20190;-80
2022/05/28 01:12:06;;;;;;;5.78;3.65;;;;;;;12.57;81.24;99880.56;5093147;28;20184;-79
2022/05/28 01:14:40;;;;;;;10.13;3.22;;;;;;;12.50;81.13;99885.50;5103411;28;20198;-78
2022/05/28 01:17:14;;;;;;;8.25;3.50;;;;;;;12.42;82.82;99886.94;5096501;28;20183;-79
2022/05/28 01:19:54;;;;;;;8.23;4.32;;;;;;;12.63;83.55;99890.13;5111446;28;20188;-79
2022/05/28 01:22:36;;;;;;;6.18;4.00;;;;;;;12.69;83.21;99893.34;5097615;28;20538;-80
2022/05/28 01:25:09;;;;;;;4.93;3.70;;;;;;;12.76;82.52;99884.84;5092414;28;20191;-80
2022/05/28 01:27:42;;;;;;;6.95;4.13;;;;;;;12.70;82.80;99888.78;5092273;28;20231;-80
2022/05/28 01:30:14;;;;;;;6.72;3.70;;;;;;;12.76;83.40;99882.16;5097605;28;20193;-79
2022/05/28 01:32:43;;;;;;;5.57;3.40;;;;;;;12.72;82.34;99886.88;5103346;28;20603;-78
2022/05/28 01:35:15;;;;;;;7.63;3.20;;;;;;;12.76;81.57;99869.50;5113689;28;20279;-79
2022/05/28 01:37:44;;;;;;;13.48;4.20;;;;;;;12.49;83.10;99872.09;5112487;28;20182;-79
2022/05/28 01:40:12;;;;;;;13.38;3.75;;;;;;;12.51;83.88;99879.13;5109393;28;20194;-79
2022/05/28 01:42:45;;;;;;;9.75;3.78;;;;;;;12.44;85.01;99885.00;5112733;28;20311;-79
2022/05/28 01:45:15;;;;;;;6.53;3.08;;;;;;;12.50;84.83;99879.22;5095920;28;20187;-78
2022/05/28 01:47:43;;;;;;;6.10;3.80;;;;;;;12.09;90.26;99874.50;5091997;28;20677;-79
2022/05/28 01:50:12;;;;;;;9.43;4.00;;;;;;;12.11;90.45;99880.69;5110307;28;20188;-79
2022/05/28 01:52:41;;;;;;;10.38;3.63;;;;;;;11.91;93.75;99881.88;5112388;28;20202;-79
2022/05/28 01:55:09;;;;;;;6.13;3.78;;;;;;;11.66;96.70;99874.31;5094860;28;20607;-80
2022/05/28 01:57:36;;;;;;;5.40;3.60;;;;;;;11.45;98.99;99869.22;5092045;28;20200;-79
2022/05/28 02:00:05;;;;;;;8.32;3.92;;;;;;;11.36;100.00;99860.78;5106038;28;20191;-79
2022/05/28 02:02:31;;;;;;;7.13;3.03;;;;;;;11.25;100.00;99867.63;5112492;28;20685;-78
2022/05/28 02:04:58;;;;;;;8.02;3.38;;;;;;;11.29;100.00;99865.66;5096069;28;20192;-79
2022/05/28 02:07:24;;;;;;;7.90;3.85;;;;;;;11.56;100.00;99867.72;5099211;28;20195;-78
2022/05/28 02:09:59;;;;;;;9.02;4.00;;;;;;;11.31;100.00;99868.28;5112412;28;20194;-79
2022/05/28 02:12:32;;;;;;;7.70;4.32;;;;;;;11.34;100.00;99863.56;5110074;28;20183;-78
2022/05/28 02:15:14;;;;;;;9.55;3.85;;;;;;;11.40;100.00;99867.75;5091740;28;20200;-80
2022/05/28 02:17:49;;;;;;;6.50;3.35;;;;;;;11.30;100.00;99869.22;5092078;28;20518;-78
2022/05/28 02:20:24;;;;;;;6.47;3.83;;;;;;;11.29;100.00;99875.56;5110506;28;20633;-78
2022/05/28 02:22:56;;;;;;;5.90;3.47;;;;;;;11.28;100.00;99866.59;5106712;28;20238;-79
2022/05/28 02:25:30;;;;;;;4.90;3.20;;;;;;;11.16;100.00;99865.47;5092192;28;20501;-80
2022/05/28 02:27:59;;;;;;;10.20;3.95;;;;;;;11.18;100.00;99868.94;5092477;28;20184;-79
2022/05/28 02:30:27;;;;;;;7.72;3.65;;;;;;;11.09;100.00;99871.31;5111913;28;20214;-79
2022/05/28 02:33:02;;;;;;;6.82;4.80;;;;;;;10.93;100.00;99866.75;5110600;28;20179;-79
2022/05/28 02:35:29;;;;;;;6.03;4.57;;;;;;;10.85;100.00;99863.59;5106186;28;20282;-79
2022/05/28 02:37:56;;;;;;;10.73;3.75;;;;;;;10.72;100.00;99866.13;5112193;28;20203;-79
2022/05/28 02:40:23;;;;;;;5.70;4.43;;;;;;;10.63;100.00;99872.88;5092129;28;20196;-79
2022/05/28 02:42:50;;;;;;;7.63;4.25;;;;;;;10.55;100.00;99868.84;5098698;28;20646;-79
2022/05/28 02:45:17;;;;;;;10.30;4.18;;;;;;;10.63;100.00;99870.19;5112035;28;20656;-79
2022/05/28 02:47:46;;;;;;;5.57;3.13;;;;;;;10.46;100.00;99866.66;5104643;28;20218;-77
2022/05/28 02:50:13;;;;;;;8.80;3.70;;;;;;;10.63;100.00;99872.00;5092861;28;20612;-78
2022/05/28 02:52:40;;;;;;;6.00;3.60;;;;;;;10.80;100.00;99863.00;5091729;28;20558;-78
2022/05/28 02:55:07;;;;;;;5.95;4.07;;;;;;;10.67;100.00;99864.63;5091123;28;20184;-78
2022/05/28 02:57:34;;;;;;;5.28;4.05;;;;;;;10.66;100.00;99862.88;5091067;28;20210;-78
2022/05/28 03:00:00;;;;;;;6.57;4.25;;;;;;;10.53;100.00;99863.53;5092002;28;20619;-78
2022/05/28 03:02:27;;;;;;;6.45;3.75;;;;;;;10.48;100.00;99864.75;5091617;28;20646;-79
2022/05/28 03:04:55;;;;;;;8.63;3.88;;;;;;;10.38;100.00;99869.75;5099711;28;20203;-78
2022/05/28 03:07:22;;;;;;;5.45;3.55;;;;;;;10.25;100.00;99868.63;5091342;28;20709;-78
2022/05/28 03:09:49;;;;;;;8.15;4.05;;;;;;;10.17;100.00;99869.00;5109178;28;20227;-78
2022/05/28 03:12:15;;;;;;;6.57;4.18;;;;;;;10.06;100.00;99861.50;5109475;28;20609;-78
2022/05/28 03:14:42;;;;;;;12.43;4.65;;;;;;;10.06;100.00;99864.19;5095598;28;20192;-78
2022/05/28 03:17:08;;;;;;;6.68;3.72;;;;;;;10.07;100.00;99865.94;5095085;28;20224;-78
2022/05/28 03:19:35;;;;;;;8.80;4.00;;;;;;;10.03;100.00;99870.59;5095875;28;20204;-79
2022/05/28 03:22:03;;;;;;;6.18;3.80;;;;;;;9.95;100.00;99872.84;5106895;28;20229;-79
2022/05/28 03:24:30;;;;;;;9.52;4.43;;;;;;;9.90;100.00;99874.88;5101677;28;20191;-79
2022/05/28 03:26:57;;;;;;;5.20;3.70;;;;;;;10.15;100.00;99874.50;5114409;28;20205;-79
2022/05/28 03:29:24;;;;;;;7.70;3.80;;;;;;;10.32;100.00;99873.63;5095606;28;20180;-79
2022/05/28 03:31:51;;;;;;;8.60;4.13;;;;;;;10.28;100.00;99871.16;5095519;28;20189;-77
2022/05/28 03:34:18;;;;;;;6.30;3.70;;;;;;;10.17;100.00;99872.56;5102668;28;20192;-79
2022/05/28 03:36:44;;;;;;;6.60;3.85;;;;;;;10.11;100.00;99880.97;5094377;28;20183;-79
2022/05/28 03:39:12;;;;;;;5.28;3.80;;;;;;;9.76;100.00;99885.47;5101045;28;20189;-79
2022/05/28 03:41:40;;;;;;;11.57;3.88;;;;;;;9.70;100.00;99883.97;5107368;28;20206;-79
2022/05/28 03:44:07;;;;;;;5.55;3.65;;;;;;;9.49;100.00;99874.25;5114777;28;20203;-79
2022/05/28 03:46:36;;;;;;;5.05;3.83;;;;;;;9.44;100.00;99887.94;5114988;28;20278;-80
2022/05/28 03:49:05;;;;;;;6.45;3.80;;;;;;;9.37;100.00;99887.34;5109898;28;20267;-80
2022/05/28 03:51:32;;;;;;;10.30;4.10;;;;;;;9.47;100.00;99886.91;5101912;28;20193;-79
2022/05/28 03:53:59;;;;;;;6.95;3.88;;;;;;;9.55;100.00;99885.59;5100172;28;20187;-79
2022/05/28 03:56:34;;;;;;;5.68;3.45;;;;;;;9.56;100.00;99886.44;5094091;28;20194;-79
2022/05/28 03:59:00;;;;;;;7.50;3.22;;;;;;;9.58;100.00;99889.94;5101719;28;20186;-79
2022/05/28 04:01:27;;;;;;;5.60;3.63;;;;;;;9.49;100.00;99893.06;5114239;28;20214;-79
2022/05/28 04:03:53;;;;;;;6.65;3.97;;;;;;;9.29;100.00;99894.03;5104217;28;20196;-78
2022/05/28 04:06:20;;;;;;;11.25;4.43;;;;;;;9.29;100.00;99886.84;5100576;28;20279;-78
2022/05/28 04:08:47;;;;;;;7.78;4.32;;;;;;;9.29;100.00;99889.53;5114299;28;20647;-78
2022/05/28 04:11:14;;;;;;;7.22;4.15;;;;;;;9.26;100.00;99888.81;5114468;28;20208;-78
2022/05/28 04:13:42;;;;;;;5.90;3.90;;;;;;;9.30;100.00;99885.91;5114467;28;20198;-79
2022/05/28 04:16:08;;;;;;;8.50;4.50;;;;;;;9.40;100.00;99891.69;5113853;28;20196;-78
2022/05/28 04:18:35;;;;;;;7.15;3.90;;;;;;;9.49;100.00;99891.25;5113705;28;20208;-79
2022/05/28 04:21:02;;;;;;;8.30;4.20;;;;;;;9.56;100.00;99887.31;5113353;28;20272;-79
2022/05/28 04:23:28;;;;;;;4.40;3.15;;;;;;;9.91;100.00;99898.13;5094138;28;20232;-79
2022/05/28 04:25:55;;;;;;;10.80;4.40;;;;;;;9.91;100.00;99898.13;5093266;28;20524;-79
2022/05/28 04:28:21;;;;;;;8.10;3.50;;;;;;;9.94;100.00;99900.66;5111983;28;20548;-79
2022/05/28 04:30:49;;;;;;;6.32;3.35;;;;;;;9.98;100.00;99910.31;5113689;28;20193;-79
2022/05/28 04:33:16;;;;;;;6.20;3.78;;;;;;;10.03;100.00;99899.31;5113574;28;20194;-79
2022/05/28 04:35:42;;;;;;;9.40;4.20;;;;;;;9.96;100.00;99911.34;5113465;28;20206;-79
2022/05/28 04:38:09;;;;;;;6.75;3.80;;;;;;;10.09;100.00;99907.09;5112682;28;20639;-78
2022/05/28 04:40:36;;;;;;;7.13;3.88;;;;;;;10.36;100.00;99903.97;5113003;28;20195;-79
2022/05/28 04:43:03;;;;;;;6.65;3.65;;;;;;;10.41;100.00;99902.75;5113178;28;20223;-77
2022/05/28 04:45:30;;;;;;;8.80;4.32;;;;;;;10.31;100.00;99896.13;5098004;28;20211;-77
2022/05/28 04:47:58;;;;;;;7.75;4.07;;;;;;;10.12;100.00;99915.00;5092466;28;20238;-75
2022/05/28 04:50:24;;;;;;;6.95;3.83;;;;;;;10.40;100.00;99897.44;5093124;28;20189;-76
2022/05/28 04:52:51;;;;;;;6.47;4.00;;;;;;;10.40;100.00;99903.72;5105234;28;20187;-76
2022/05/28 04:55:18;;;;;;;6.85;4.35;;;;;;;10.64;100.00;99896.16;5113162;28;20203;-76
2022/05/28 04:57:44;;;;;;;5.85;4.10;;;;;;;10.75;100.00;99902.78;5112555;28;20183;-76
2022/05/28 05:00:16;;;;;;;7.90;4.45;;;;;;;10.66;100.00;99905.97;5112873;28;20194;-76
2022/05/28 05:02:43;;;;;;;7.45;4.40;;;;;;;10.61;100.00;99908.91;5113861;28;20318;-76
2022/05/28 05:05:11;;;;;;;10.68;4.05;;;;;;;10.91;100.00;99900.13;5114101;28;20184;-79
2022/05/28 05:07:38;;;;;;;6.50;3.50;;;;;;;11.18;100.00;99897.72;5113351;28;20516;-79
2022/05/28 05:10:06;;;;;;;6.78;4.25;;;;;;;11.17;100.00;99907.66;5109581;28;20199;-79
2022/05/28 05:12:33;;;;;;;4.25;3.60;;;;;;;10.97;100.00;99907.88;5111479;28;20311;-78
2022/05/28 05:15:00;;;;;;;11.07;4.15;;;;;;;11.25;100.00;99905.38;5113504;28;20184;-79
2022/05/28 05:17:26;;;;;;;7.78;3.55;;;;;;;11.45;100.00;99909.66;5113550;28;20349;-79
2022/05/28 05:19:53;;;;;;;7.88;4.50;;;;;;;11.60;100.00;99904.31;5112885;28;20196;-79
2022/05/28 05:22:21;;;;;;;7.70;3.78;;;;;;;11.82;97.91;99912.91;5112174;27;20219;-79
2022/05/28 05:24:48;;;;;;;15.02;4.85;;;;;;;11.90;96.56;99912.53;5112548;28;20195;-79
2022/05/28 05:27:14;;;;;;;5.68;4.45;;;;;;;11.97;96.39;99913.03;5112471;28;20180;-79
2022/05/28 05:29:41;;;;;;;9.43;4.78;;;;;;;12.25;93.69;99910.41;5112369;28;20203;-79
2022/05/28 05:32:08;;;;;;;7.75;4.03;;;;;;;12.34;89.10;99910.81;5111897;28;20183;-79
2022/05/28 05:34:37;;;;;;;6.40;4.07;;;;;;;12.26;91.12;99911.31;5111921;28;20217;-80
2022/05/28 05:37:04;;;;;;;11.63;4.55;;;;;;;12.52;89.57;99913.25;5112805;28;20619;-79
2022/05/28 05:39:32;;;;;;;10.98;4.75;;;;;;;12.69;87.38;99917.66;5112883;28;20522;-79
2022/05/28 05:41:58;;;;;;;8.15;3.97;;;;;;;13.01;84.61;99909.34;5112327;28;20685;-80
2022/05/28 05:44:25;;;;;;;6.60;3.90;;;;;;;12.83;84.28;99905.13;5112319;28;20272;-79
2022/05/28 05:46:51;;;;;;;6.78;4.10;;;;;;;13.18;81.81;99910.97;5112528;28;20303;-79
2022/05/28 05:49:18;;;;;;;6.28;4.07;;;;;;;12.97;82.54;99905.09;5112212;28;20754;-79
2022/05/28 05:51:47;;;;;;;9.05;4.22;;;;;;;12.45;86.59;99905.66;5112309;28;20210;-79
2022/05/28 05:54:15;;;;;;;5.95;3.72;;;;;;;12.77;85.94;99910.91;5112237;28;20239;-80
2022/05/28 05:56:43;;;;;;;7.15;3.95;;;;;;;12.66;85.69;99912.44;5112459;28;20183;-80
2022/05/28 05:59:10;;;;;;;9.18;4.13;;;;;;;12.94;84.81;99913.41;5111621;28;20280;-79
2022/05/28 06:01:37;;;;;;;7.70;4.47;;;;;;;13.03;84.30;99907.44;5111412;28;20207;-79
2022/05/28 06:04:04;;;;;;;6.10;3.55;;;;;;;12.95;83.70;99915.16;5111674;28;20302;-80
2022/05/28 06:06:31;;;;;;;10.38;4.53;;;;;;;12.84;84.71;99905.00;5111693;28;20190;-80
2022/05/28 06:08:58;;;;;;;10.13;5.38;;;;;;;13.01;84.17;99903.09;5112066;28;20211;-80
2022/05/28 06:11:25;;;;;;;16.08;3.88;;;;;;;13.43;80.06;99918.44;5111956;28;20206;-79
2022/05/28 06:13:53;;;;;;;7.68;3.90;;;;;;;13.45;79.72;99912.91;5111763;28;20195;-79
2022/05/28 06:16:20;;;;;;;8.32;4.57;;;;;;;13.21;78.85;99912.63;5111767;28;20193;-80
2022/05/28 06:18:46;;;;;;;10.82;4.78;;;;;;;13.24;79.96;99902.47;5110751;28;20185;-79
2022/05/28 06:21:13;;;;;;;6.95;3.70;;;;;;;13.43;78.11;99907.63;5111710;28;20203;-79
2022/05/28 06:23:41;;;;;;;7.72;4.07;;;;;;;13.69;76.89;99913.16;5111809;28;20209;-79
2022/05/28 06:26:08;;;;;;;8.85;4.35;;;;;;;14.06;74.50;99910.69;5111645;28;20199;-79
2022/05/28 06:28:36;;;;;;;6.35;3.08;;;;;;;14.12;73.57;99912.97;5111584;28;20196;-79
2022/05/28 06:31:06;;;;;;;8.32;3.53;;;;;;;14.15;73.70;99908.19;5111567;28;20192;-80
2022/05/28 06:33:34;;;;;;;10.27;4.40;;;;;;;13.97;74.09;99907.63;5111529;28;20190;-80
2022/05/28 06:36:02;;;;;;;14.50;4.22;;;;;;;14.10;73.40;99906.78;5111765;28;20182;-80
2022/05/28 06:38:29;;;;;;;10.07;3.97;;;;;;;14.24;73.29;99913.97;5111896;28;20646;-80
2022/05/28 06:40:56;;;;;;;13.77;5.18;;;;;;;14.71;70.65;99905.28;5111598;28;20214;-79
2022/05/28 06:43:24;;;;;;;8.75;3.47;;;;;;;14.51;69.84;99905.78;5114123;28;20240;-80
2022/05/28 06:45:51;;;;;;;7.90;3.58;;;;;;;14.58;69.46;99907.13;5115909;28;20531;-79
2022/05/28 06:48:19;;;;;;;9.90;3.22;;;;;;;14.84;67.29;99907.16;5115380;28;20223;-79
2022/05/28 06:51:03;;;;;;;6.97;2.95;;;;;;;14.60;66.59;99907.88;5115289;28;20186;-80
2022/05/28 06:53:30;;;;;;;8.77;2.80;;;;;;;14.81;65.18;99891.94;5115116;28;20273;-79
2022/05/28 06:55:57;;;;;;;10.85;4.88;;;;;;;14.94;63.26;99892.81;5115568;28;20201;-79
2022/05/28 06:58:24;;;;;;;16.52;3.25;;;;;;;14.79;64.23;99891.22;5115522;28;20201;-79
2022/05/28 07:00:51;;;;;;;7.70;3.00;;;;;;;14.60;62.81;99902.47;5115293;28;20205;-79
2022/05/28 07:03:22;;;;;;;10.50;2.83;;;;;;;14.94;61.98;99897.38;5115124;28;20229;-80
2022/05/28 07:05:49;;;;;;;5.03;2.47;;;;;;;15.14;60.71;99885.09;5115230;28;20186;-80
2022/05/28 07:08:16;;;;;;;8.77;2.40;;;;;;;14.84;61.20;99896.31;5115278;28;20205;-79
2022/05/28 07:10:45;;;;;;;6.88;2.65;;;;;;;14.59;63.16;99888.06;5115393;28;20631;-80
2022/05/28 07:13:12;;;;;;;8.85;2.47;;;;;;;14.88;62.26;99881.53;5115286;28;20205;-80
2022/05/28 07:15:39;;;;;;;6.15;2.63;;;;;;;14.84;62.34;99890.88;5114917;28;20177;-80
2022/05/28 07:18:06;;;;;;;7.50;2.50;;;;;;;15.23;61.58;99887.13;5115195;28;20521;-80
2022/05/28 07:20:34;;;;;;;8.57;2.45;;;;;;;15.37;59.80;99884.25;5114891;28;20183;-80
2022/05/28 07:23:08;;;;;;;5.38;2.20;;;;;;;15.25;59.32;99881.59;5114433;28;20209;-80
2022/05/28 07:25:34;;;;;;;7.05;2.25;;;;;;;15.68;58.69;99881.13;5114561;28;20185;-80
2022/05/28 07:28:24;;;;;;;5.93;2.38;;;;;;;15.25;60.49;99884.31;5114611;28;20200;-80
2022/05/28 07:30:47;;;;;;;6.30;2.55;;;;;;;15.75;59.45;99882.44;5114467;28;20204;-79
2022/05/28 07:33:14;;;;;;;4.60;2.00;;;;;;;16.12;56.06;99879.63;5114984;28;20180;-80
2022/05/28 07:35:42;;;;;;;8.85;2.30;;;;;;;16.10;55.89;99889.75;5114427;28;20205;-80
2022/05/28 07:38:09;;;;;;;7.82;2.55;;;;;;;16.30;55.14;99880.06;5114845;28;20194;-80
2022/05/28 07:40:36;;;;;;;6.57;2.88;;;;;;;16.44;54.29;99888.03;5114352;28;20245;-80
2022/05/28 07:43:02;;;;;;;5.97;3.05;;;;;;;15.99;55.31;99886.03;5114751;28;21033;-80
2022/05/28 07:45:30;;;;;;;10.70;2.47;;;;;;;16.02;55.96;99888.50;5114670;28;20543;-80
2022/05/28 07:47:57;;;;;;;8.40;2.15;;;;;;;15.90;56.41;99878.56;5114429;28;21025;-80
2022/05/28 07:50:23;;;;;;;8.23;2.80;;;;;;;16.07;55.98;99877.28;5114395;28;20315;-80
2022/05/28 07:52:51;;;;;;;8.75;2.70;;;;;;;16.14;56.49;99877.66;5114429;28;20711;-80
2022/05/28 07:55:18;;;;;;;7.47;2.40;;;;;;;16.62;54.16;99873.00;5113819;28;20593;-80
2022/05/28 07:57:44;;;;;;;5.75;2.58;;;;;;;15.89;56.66;99875.97;5114232;28;20201;-80
2022/05/28 08:00:12;;;;;;;6.05;2.65;;;;;;;15.80;58.15;99872.94;5114393;28;20535;-79
2022/05/28 08:02:39;;;;;;;8.50;3.42;;;;;;;16.23;57.23;99856.09;5113859;28;20198;-79
2022/05/28 08:05:06;;;;;;;10.50;3.20;;;;;;;16.58;55.37;99862.50;5114258;28;20297;-80
2022/05/28 08:07:32;;;;;;;4.82;2.63;;;;;;;16.75;54.26;99866.56;5114495;28;20238;-80
2022/05/28 08:10:00;;;;;;;3.53;2.33;;;;;;;16.57;54.51;99863.47;5114543;28;20197;-80
2022/05/28 08:12:27;;;;;;;6.30;2.60;;;;;;;16.95;52.90;99854.13;5114312;28;20187;-79
2022/05/28 08:14:53;;;;;;;6.22;2.60;;;;;;;16.73;54.28;99852.22;5114158;28;20823;-79
2022/05/28 08:17:20;;;;;;;4.25;2.55;;;;;;;16.99;53.52;99861.06;5113926;28;20614;-79
2022/05/28 08:19:47;;;;;;;5.30;2.28;;;;;;;16.42;53.99;99860.97;5113957;28;20188;-80
2022/05/28 08:24:58;;;;;;;4.50;2.30;;;;;;;17.00;51.62;99852.75;5113413;28;20178;-80
2022/05/28 08:27:26;;;;;;;8.98;3.63;;;;;;;17.13;50.99;99866.25;5113271;28;20199;-79
2022/05/28 08:29:52;;;;;;;6.93;2.60;;;;;;;17.46;50.59;99862.63;5113685;28;20619;-79
2022/05/28 08:32:19;;;;;;;8.85;2.40;;;;;;;17.97;48.98;99863.84;5113474;28;20187;-80
2022/05/28 08:34:46;;;;;;;5.75;2.40;;;;;;;17.18;49.77;99858.56;5113201;28;20650;-80
2022/05/28 08:37:13;;;;;;;5.28;2.53;;;;;;;17.92;48.39;99853.34;5113535;28;20544;-80
2022/05/28 08:39:40;;;;;;;10.07;2.85;;;;;;;17.61;49.56;99855.03;5112849;28;20180;-80
2022/05/28 08:42:12;;;;;;;9.73;2.60;;;;;;;17.39;50.84;99849.63;5114188;28;20203;-80
2022/05/28 08:44:42;;;;;;;7.00;2.53;;;;;;;17.72;49.64;99852.25;5113353;28;20275;-80
2022/05/28 08:47:15;;;;;;;7.10;2.75;;;;;;;18.23;47.98;99845.28;5112586;28;20199;-80
2022/05/28 08:49:43;;;;;;;6.32;2.15;;;;;;;17.54;47.19;99842.06;5113287;28;20223;-80
2022/05/28 08:52:14;;;;;;;5.70;1.98;;;;;;;18.18;46.36;99833.03;5113035;28;20601;-80
2022/05/28 08:54:56;;;;;;;3.58;1.98;;;;;;;18.11;44.98;99829.97;5112352;28;20183;-79
2022/05/28 08:57:32;;;;;;;5.15;2.20;;;;;;;18.00;44.80;99833.63;5112618;28;20196;-80
2022/05/28 09:00:03;;;;;;;6.25;2.15;;;;;;;18.26;45.19;99830.53;5112822;28;20537;-80
2022/05/28 09:02:38;;;;;;;4.65;2.00;;;;;;;18.18;46.53;99835.75;5113343;28;20312;-80
2022/05/28 09:05:07;;;;;;;4.72;2.10;;;;;;;17.95;45.40;99843.19;5112495;28;20230;-80
2022/05/28 09:07:33;;;;;;;3.35;2.10;;;;;;;17.90;46.17;99838.97;5111668;28;20191;-80
2022/05/28 09:10:01;;;;;;;5.10;2.42;;;;;;;17.72;46.62;99838.66;5112864;28;20311;-79
2022/05/28 09:12:30;;;;;;;7.78;1.98;;;;;;;18.00;46.03;99841.81;5112515;28;20276;-80
2022/05/28 09:14:57;;;;;;;5.47;1.75;;;;;;;18.11;45.54;99830.88;5112526;28;20218;-81
2022/05/28 09:17:28;;;;;;;6.47;1.92;;;;;;;18.43;45.68;99832.66;5112140;28;20188;-80
2022/05/28 09:19:59;;;;;;;7.40;2.25;;;;;;;19.01;43.07;99837.56;5112476;28;20286;-80
2022/05/28 09:22:26;;;;;;;3.10;1.92;;;;;;;18.96;42.33;99823.47;5111853;28;20186;-80
2022/05/28 09:24:53;;;;;;;4.18;1.55;;;;;;;18.50;42.17;99830.25;5112545;28;20220;-80
2022/05/28 09:27:30;;;;;;;3.80;2.08;;;;;;;18.68;42.36;99822.31;5113016;28;20198;-80
2022/05/28 09:30:14;;;;;;;4.70;1.90;;;;;;;18.88;41.97;99818.72;5112311;28;20189;-80
2022/05/28 09:33:00;;;;;;;4.45;1.70;;;;;;;19.03;42.04;99826.53;5112566;28;20638;-80
2022/05/28 09:35:45;;;;;;;8.88;2.08;;;;;;;18.51;43.03;99821.06;5112371;28;20186;-80
2022/05/28 09:38:17;;;;;;;5.07;2.13;;;;;;;18.75;44.19;99821.63;5112412;28;20556;-80
2022/05/28 09:40:50;;;;;;;5.05;1.90;;;;;;;19.25;42.16;99820.84;5112035;28;20186;-79
2022/05/28 09:43:36;;;;;;;5.00;1.58;;;;;;;17.35;45.23;99826.41;5111960;28;20202;-80
2022/05/28 09:46:13;;;;;;;3.75;1.70;;;;;;;17.58;44.73;99827.19;5112249;28;20186;-80
2022/05/28 09:48:46;;;;;;;3.42;1.80;;;;;;;17.75;44.60;99825.75;5111934;28;20226;-78
2022/05/28 09:51:23;;;;;;;6.07;2.20;;;;;;;17.70;45.59;99826.16;5111928;28;20615;-80
2022/05/28 09:56:45;;;;;;;8.75;2.90;;;;;;;17.51;46.20;99822.25;5111809;28;20192;-78
2022/05/28 09:59:22;;;;;;;5.95;1.95;;;;;;;17.77;46.30;99821.91;5111860;28;20295;-80
2022/05/28 10:01:55;;;;;;;5.65;2.13;;;;;;;17.78;45.23;99817.34;5111581;28;20207;-80
2022/05/28 10:04:32;;;;;;;3.67;1.85;;;;;;;17.85;45.45;99818.59;5111568;28;20255;-80
2022/05/28 10:07:03;;;;;;;5.80;2.03;;;;;;;17.60;46.06;99820.63;5111508;28;20189;-81
2022/05/28 10:09:33;;;;;;;7.47;1.85;;;;;;;18.18;44.31;99808.50;5111648;28;20543;-80
2022/05/28 10:12:02;;;;;;;5.68;2.25;;;;;;;18.39;43.75;99803.94;5111807;28;20263;-80
2022/05/28 10:14:31;;;;;;;3.60;1.55;;;;;;;18.20;42.58;99801.06;5111735;28;20186;-80
2022/05/28 10:17:00;;;;;;;3.67;1.42;;;;;;;18.67;41.18;99788.72;5111654;28;20189;-80
2022/05/28 10:19:32;;;;;;;2.60;1.40;;;;;;;18.20;41.17;99798.34;5115578;28;20205;-80
2022/05/28 10:22:02;;;;;;;4.72;1.90;;;;;;;18.08;41.80;99789.38;5115834;28;20272;-80
2022/05/28 10:24:40;;;;;;;3.42;1.90;;;;;;;18.32;41.34;99791.84;5116012;28;20231;-80
2022/05/28 10:27:23;;;;;;;3.65;1.75;;;;;;;17.76;42.41;99792.97;5115386;28;20203;-82
2022/05/28 10:29:51;;;;;;;5.13;1.80;;;;;;;18.14;42.86;99786.13;5115686;28;20206;-80
2022/05/28 10:32:26;;;;;;;2.70;1.27;;;;;;;18.25;40.82;99779.75;5115979;28;20622;-80
2022/05/28 10:35:01;;;;;;;3.90;1.70;;;;;;;18.30;40.17;99774.75;5116267;28;20180;-80
2022/05/28 10:37:28;;;;;;;3.35;1.90;;;;;;;18.69;39.65;99783.97;5115928;28;20452;-80
2022/05/28 10:40:06;;;;;;;3.50;1.48;;;;;;;18.77;39.20;99775.16;5115323;28;20201;-81
2022/05/28 10:42:33;;;;;;;4.95;2.05;;;;;;;18.93;39.07;99767.31;5115694;28;20201;-80
2022/05/28 10:44:59;;;;;;;6.82;2.80;;;;;;;18.87;39.31;99767.00;5115583;28;20228;-81
2022/05/28 10:47:49;;;;;;;4.82;1.77;;;;;;;18.12;39.87;99760.88;5115374;28;20763;-80
2022/05/28 10:50:26;;;;;;;6.95;1.70;;;;;;;17.64;39.77;99756.75;5115361;28;20542;-80
2022/05/28 10:53:08;;;;;;;6.00;1.67;;;;;;;17.49;39.69;99753.47;5115332;28;20274;-80
2022/05/28 10:55:42;;;;;;;4.28;1.35;;;;;;;17.56;39.23;99742.91;5115423;28;20181;-80
2022/05/28 10:58:25;;;;;;;3.92;1.40;;;;;;;17.92;38.51;99744.38;5114838;28;20183;-80
2022/05/28 11:01:00;;;;;;;3.95;1.65;;;;;;;17.94;38.82;99738.81;5115502;28;20274;-80
2022/05/28 11:03:45;;;;;;;1.83;1.50;;;;;;;18.01;39.02;99740.00;5114994;28;20599;-81
2022/05/28 11:06:41;;;;;;;3.40;1.33;;;;;;;18.29;38.57;99722.09;5114820;28;20183;-79
2022/05/28 11:09:15;;;;;;;4.85;1.30;;;;;;;18.68;37.57;99732.31;5113077;28;20292;-80
2022/05/28 11:11:52;;;;;;;4.80;1.63;;;;;;;18.85;35.90;99723.50;5114809;28;20205;-80
2022/05/28 11:14:42;;;;;;;3.47;1.42;;;;;;;18.91;36.25;99730.28;5115002;28;20182;-80
2022/05/28 11:17:21;;;;;;;3.22;1.40;;;;;;;18.92;36.72;99727.38;5114758;28;20181;-80
2022/05/28 11:20:03;;;;;;;4.53;1.55;;;;;;;19.26;36.25;99724.28;5114525;28;20181;-80
2022/05/28 11:22:50;;;;;;;4.07;1.63;;;;;;;19.14;35.29;99719.97;5114720;28;20189;-80
2022/05/28 11:25:23;;;;;;;3.30;1.20;;;;;;;19.17;35.57;99719.69;5114961;28;20210;-80
2022/05/28 11:28:08;;;;;;;5.45;1.30;;;;;;;19.14;36.00;99715.38;5114570;28;20187;-80
2022/05/28 11:30:39;;;;;;;3.05;1.70;;;;;;;19.25;35.61;99706.19;5113684;28;20628;-80
2022/05/28 11:33:13;;;;;;;2.22;1.75;;;;;;;19.77;34.72;99706.81;5114498;28;20613;-80
2022/05/28 11:35:43;;;;;;;2.67;1.70;;;;;;;19.20;36.81;99702.16;5114894;28;20532;-80
2022/05/28 11:38:17;;;;;;;2.53;1.50;;;;;;;18.96;36.78;99703.41;5114628;28;20631;-80
2022/05/28 11:40:54;;;;;;;4.15;1.70;;;;;;;19.45;36.50;99708.94;5114352;28;20183;-81
2022/05/28 11:43:25;;;;;;;2.30;1.30;;;;;;;19.06;37.24;99706.16;5114506;28;20186;-79
2022/05/28 11:45:57;;;;;;;4.18;1.77;;;;;;;19.47;36.97;99693.25;5114776;28;20558;-81
2022/05/28 11:51:27;;;;;;;3.70;1.77;;;;;;;19.92;36.37;99704.50;5114438;28;20241;-80